createdAt,value
2018-11-03T00:01:05.765Z,13.53
2018-11-03T00:03:36.762Z,14.17
2018-11-03T00:06:05.640Z,14.60
2018-11-03T00:08:34.571Z,14.27
2018-11-03T00:13:53.897Z,15.03
2018-11-03T00:16:24.913Z,15.70
2018-11-03T00:18:55.857Z,16.03
2018-11-03T00:21:25.063Z,15.63
2018-11-03T00:23:54.311Z,16.27
2018-11-03T00:26:24.081Z,16.17
2018-11-03T00:28:52.959Z,17.17
2018-11-03T00:31:21.724Z,17.67
2018-11-03T00:33:50.572Z,17.40
2018-11-03T00:36:19.932Z,17.33
2018-11-03T00:38:48.856Z,17.90
2018-11-03T00:41:17.784Z,18.73
2018-11-03T00:43:46.638Z,16.43
2018-11-03T00:46:15.517Z,17.80
2018-11-03T00:48:44.266Z,18.07
2018-11-03T00:51:13.119Z,21.10
2018-11-03T00:53:42.032Z,20.60
2018-11-03T00:56:12.612Z,20.73
2018-11-03T00:58:41.521Z,21.17
2018-11-03T01:01:10.406Z,21.60
2018-11-03T01:03:39.263Z,19.10
2018-11-03T01:06:08.487Z,22.17
2018-11-03T01:08:37.480Z,23.60
2018-11-03T01:11:06.761Z,23.63
2018-11-03T01:13:35.646Z,22.30
2018-11-03T01:16:04.745Z,22.87
2018-11-03T01:18:33.708Z,24.00
2018-11-03T01:21:02.627Z,24.97
2018-11-03T01:23:32.851Z,23.27
2018-11-03T01:26:04.163Z,23.07
2018-11-03T01:28:36.901Z,23.37
2018-11-03T01:31:13.191Z,24.13
2018-11-03T01:34:02.776Z,24.07
2018-11-03T01:39:17.232Z,24.67
2018-11-03T01:41:46.733Z,25.73
2018-11-03T01:44:16.115Z,25.33
2018-11-03T01:46:44.902Z,24.90
2018-11-03T01:49:14.869Z,26.57
2018-11-03T01:51:43.802Z,24.57
2018-11-03T01:54:13.084Z,25.13
2018-11-03T01:56:42.174Z,25.07
2018-11-03T01:59:11.432Z,25.80
2018-11-03T02:04:43.473Z,26.97
2018-11-03T02:07:13.010Z,27.07
2018-11-03T02:09:42.564Z,26.63
2018-11-03T02:12:39.202Z,27.77
2018-11-03T02:15:16.264Z,27.53
2018-11-03T02:17:45.788Z,26.63
2018-11-03T02:20:14.608Z,26.03
2018-11-03T02:22:43.526Z,25.83
2018-11-03T02:25:12.439Z,27.73
2018-11-03T02:27:43.282Z,28.80
2018-11-03T02:30:12.802Z,27.97
2018-11-03T02:32:43.827Z,26.63
2018-11-03T02:35:12.803Z,26.53
2018-11-03T02:37:42.328Z,25.20
2018-11-03T02:40:12.906Z,26.43
2018-11-03T02:42:42.343Z,26.20
2018-11-03T02:45:12.901Z,25.10
2018-11-03T02:47:47.938Z,23.90
2018-11-03T02:50:16.702Z,26.27
2018-11-03T02:52:45.621Z,26.47
2018-11-03T02:55:14.959Z,24.73
2018-11-03T02:57:43.895Z,26.00
2018-11-03T03:00:12.942Z,25.87
2018-11-03T03:02:41.917Z,25.67
2018-11-03T03:05:11.464Z,26.27
2018-11-03T03:07:40.766Z,25.87
2018-11-03T03:10:11.594Z,25.33
2018-11-03T03:12:40.464Z,22.93
2018-11-03T03:15:11.331Z,26.07
2018-11-03T03:17:40.410Z,26.73
2018-11-03T03:20:11.798Z,26.53
2018-11-03T03:22:42.730Z,26.67
2018-11-03T03:25:12.852Z,26.63
2018-11-03T03:27:41.883Z,27.53
2018-11-03T03:30:11.122Z,26.67
2018-11-03T03:32:40.256Z,27.27
2018-11-03T03:35:09.442Z,26.33
2018-11-03T03:37:38.420Z,25.93
2018-11-03T03:40:08.399Z,27.10
2018-11-03T03:42:37.384Z,28.00
2018-11-03T03:45:08.879Z,29.13
2018-11-03T03:47:38.304Z,28.67
2018-11-03T03:50:08.266Z,27.97
2018-11-03T03:52:37.138Z,28.63
2018-11-03T03:55:06.511Z,26.53
2018-11-03T03:57:35.622Z,29.43
2018-11-03T04:00:04.539Z,27.93
2018-11-03T04:02:34.944Z,29.23
2018-11-03T04:05:03.961Z,29.83
2018-11-03T04:07:32.953Z,28.43
2018-11-03T04:10:01.888Z,28.67
2018-11-03T04:12:31.373Z,28.67
2018-11-03T04:15:01.093Z,28.13
2018-11-03T04:17:30.044Z,29.50
2018-11-03T04:19:59.124Z,30.67
2018-11-03T04:22:31.181Z,29.23
2018-11-03T04:25:01.021Z,30.30
2018-11-03T04:27:30.568Z,29.90
2018-11-03T04:29:59.659Z,30.80
2018-11-03T04:32:28.635Z,29.47
2018-11-03T04:34:57.715Z,31.10
2018-11-03T04:37:26.690Z,31.37
2018-11-03T04:39:55.943Z,30.03
2018-11-03T04:42:25.594Z,31.60
2018-11-03T04:44:56.299Z,31.07
2018-11-03T04:47:25.244Z,32.83
2018-11-03T04:49:59.876Z,33.77
2018-11-03T04:52:28.835Z,32.80
2018-11-03T04:54:58.054Z,33.67
2018-11-03T04:57:27.214Z,30.43
2018-11-03T04:59:57.835Z,33.23
2018-11-03T05:02:26.684Z,34.20
2018-11-03T05:04:55.651Z,31.60
2018-11-03T05:07:24.528Z,32.00
2018-11-03T05:09:53.552Z,32.63
2018-11-03T05:12:22.784Z,34.60
2018-11-03T05:14:51.650Z,32.43
2018-11-03T05:17:20.514Z,34.13
2018-11-03T05:19:51.938Z,33.03
2018-11-03T05:22:22.129Z,33.00
2018-11-03T05:24:51.099Z,33.40
2018-11-03T05:27:19.984Z,33.53
2018-11-03T05:29:48.981Z,32.57
2018-11-03T05:32:17.815Z,33.17
2018-11-03T05:34:46.898Z,33.23
2018-11-03T05:37:15.761Z,31.33
2018-11-03T05:39:44.698Z,31.90
2018-11-03T05:42:13.640Z,33.40
2018-11-03T05:44:42.535Z,30.27
2018-11-03T05:47:11.836Z,31.07
2018-11-03T05:49:42.332Z,33.60
2018-11-03T05:52:13.739Z,32.73
2018-11-03T05:54:42.850Z,32.63
2018-11-03T05:57:11.786Z,31.63
2018-11-03T05:59:40.792Z,30.33
2018-11-03T06:02:10.036Z,33.17
2018-11-03T06:04:39.028Z,31.67
2018-11-03T06:07:07.974Z,33.47
2018-11-03T06:09:36.949Z,31.97
2018-11-03T06:12:06.795Z,32.03
2018-11-03T06:14:35.898Z,33.47
2018-11-03T06:17:04.833Z,33.00
2018-11-03T06:19:33.714Z,33.20
2018-11-03T06:22:02.712Z,32.20
2018-11-03T06:24:31.583Z,31.97
2018-11-03T06:27:00.462Z,33.17
2018-11-03T06:29:29.402Z,31.17
2018-11-03T06:31:58.306Z,31.13
2018-11-03T06:34:28.963Z,30.97
2018-11-03T06:37:06.688Z,32.23
2018-11-03T06:39:40.738Z,32.30
2018-11-03T06:42:09.628Z,31.00
2018-11-03T06:44:38.545Z,30.67
2018-11-03T06:47:08.370Z,28.47
2018-11-03T06:49:37.565Z,30.27
2018-11-03T06:52:07.082Z,30.57
2018-11-03T06:54:36.680Z,33.77
2018-11-03T06:57:07.318Z,31.97
2018-11-03T06:59:37.088Z,32.07
2018-11-03T07:02:06.619Z,33.20
2018-11-03T07:04:36.887Z,30.80
2018-11-03T07:07:06.272Z,34.37
2018-11-03T07:09:37.090Z,31.60
2018-11-03T07:12:06.608Z,32.67
2018-11-03T07:14:37.191Z,32.40
2018-11-03T07:17:07.014Z,31.73
2018-11-03T07:19:36.342Z,29.97
2018-11-03T07:22:05.852Z,31.77
2018-11-03T07:24:34.918Z,31.90
2018-11-03T07:27:04.151Z,30.30
2018-11-03T07:29:33.903Z,30.77
2018-11-03T07:32:03.759Z,29.77
2018-11-03T07:34:32.907Z,31.67
2018-11-03T07:37:05.048Z,32.03
2018-11-03T07:39:33.911Z,31.10
2018-11-03T07:42:05.272Z,32.33
2018-11-03T07:44:34.479Z,31.50
2018-11-03T07:47:03.637Z,30.60
2018-11-03T07:49:34.367Z,31.93
2018-11-03T07:54:55.705Z,30.90
2018-11-03T07:57:25.271Z,26.50
2018-11-03T07:59:56.259Z,32.90
2018-11-03T08:02:27.860Z,31.80
2018-11-03T08:04:56.952Z,24.47
2018-11-03T08:07:26.821Z,29.27
2018-11-03T08:09:56.404Z,31.60
2018-11-03T08:12:25.462Z,30.67
2018-11-03T08:14:57.600Z,29.40
2018-11-03T08:17:26.697Z,32.30
2018-11-03T08:19:55.791Z,31.17
2018-11-03T08:22:24.916Z,32.20
2018-11-03T08:24:54.645Z,27.43
2018-11-03T08:27:24.590Z,30.40
2018-11-03T08:29:57.830Z,31.03
2018-11-03T08:32:27.319Z,31.23
2018-11-03T08:34:57.359Z,30.17
2018-11-03T08:37:27.864Z,31.00
2018-11-03T08:39:57.814Z,31.70
2018-11-03T08:42:27.048Z,29.70
2018-11-03T08:44:59.382Z,29.67
2018-11-03T08:47:28.430Z,30.00
2018-11-03T08:49:57.487Z,29.67
2018-11-03T08:52:26.391Z,30.87
2018-11-03T08:54:55.315Z,29.93
2018-11-03T08:57:24.435Z,29.37
2018-11-03T08:59:55.283Z,30.77
2018-11-03T09:02:24.196Z,29.63
2018-11-03T09:04:53.160Z,31.83
2018-11-03T09:07:22.053Z,31.57
2018-11-03T09:09:51.587Z,31.37
2018-11-03T09:12:20.535Z,29.87
2018-11-03T09:14:49.376Z,30.67
2018-11-03T09:17:18.309Z,30.77
2018-11-03T09:19:47.187Z,30.57
2018-11-03T09:22:16.523Z,32.17
2018-11-03T09:24:45.382Z,33.10
2018-11-03T09:27:14.204Z,30.17
2018-11-03T09:29:43.217Z,31.17
2018-11-03T09:32:12.345Z,30.80
2018-11-03T09:34:41.468Z,29.17
2018-11-03T09:37:10.328Z,28.83
2018-11-03T09:39:40.718Z,32.87
2018-11-03T09:42:09.574Z,29.30
2018-11-03T09:44:38.541Z,30.90
2018-11-03T09:47:07.426Z,30.27
2018-11-03T09:49:36.324Z,31.67
2018-11-03T09:52:05.315Z,29.60
2018-11-03T09:54:34.328Z,30.30
2018-11-03T09:57:04.224Z,29.10
2018-11-03T09:59:33.183Z,31.43
2018-11-03T10:02:02.057Z,26.13
2018-11-03T10:04:31.165Z,29.13
2018-11-03T10:07:00.116Z,29.97
2018-11-03T10:09:28.999Z,30.13
2018-11-03T10:11:57.863Z,27.03
2018-11-03T10:14:28.141Z,32.03
2018-11-03T10:16:56.971Z,29.03
2018-11-03T10:19:25.923Z,25.43
2018-11-03T10:21:54.843Z,24.70
2018-11-03T10:24:23.940Z,29.57
2018-11-03T10:26:59.419Z,29.57
2018-11-03T10:29:32.162Z,29.07
2018-11-03T10:32:01.248Z,28.03
2018-11-03T10:34:32.191Z,30.50
2018-11-03T10:37:01.072Z,25.67
2018-11-03T10:39:30.014Z,28.07
2018-11-03T10:41:58.947Z,27.97
2018-11-03T10:44:27.886Z,25.93
2018-11-03T10:46:56.899Z,29.03
2018-11-03T10:49:32.230Z,27.60
2018-11-03T10:52:01.175Z,28.63
2018-11-03T10:54:30.235Z,29.13
2018-11-03T10:56:59.252Z,28.63
2018-11-03T10:59:28.137Z,25.03
2018-11-03T11:02:02.421Z,27.67
2018-11-03T11:04:36.598Z,27.40
2018-11-03T11:07:10.973Z,28.30
2018-11-03T11:09:44.854Z,27.50
2018-11-03T11:12:46.364Z,27.57
2018-11-03T11:15:15.428Z,27.17
2018-11-03T11:17:44.557Z,23.63
2018-11-03T11:20:13.391Z,25.07
2018-11-03T11:22:42.324Z,28.63
2018-11-03T11:25:12.222Z,27.07
2018-11-03T11:27:41.209Z,27.83
2018-11-03T11:30:14.981Z,26.57
2018-11-03T11:32:45.170Z,23.40
2018-11-03T11:35:14.108Z,25.60
2018-11-03T11:37:43.104Z,25.93
2018-11-03T11:40:11.973Z,26.00
2018-11-03T11:45:35.013Z,25.83
2018-11-03T11:48:04.026Z,25.63
2018-11-03T11:50:33.020Z,25.97
2018-11-03T11:53:02.035Z,24.43
2018-11-03T11:55:30.995Z,25.43
2018-11-03T11:58:00.060Z,24.43
2018-11-03T12:00:29.066Z,25.67
2018-11-03T12:02:58.010Z,23.57
2018-11-03T12:05:27.115Z,24.83
2018-11-03T12:07:56.278Z,22.70
2018-11-03T12:10:25.147Z,22.30
2018-11-03T12:12:54.255Z,18.80
2018-11-03T12:15:23.722Z,18.90
2018-11-03T12:17:53.174Z,18.70
2018-11-03T12:20:22.093Z,18.50
2018-11-03T12:22:50.972Z,20.17
2018-11-03T12:25:20.123Z,17.70
2018-11-03T12:27:49.095Z,19.73
2018-11-03T12:30:18.177Z,18.03
2018-11-03T12:32:47.132Z,18.37
2018-11-03T12:35:16.177Z,19.27
2018-11-03T12:37:46.085Z,19.33
2018-11-03T12:40:16.071Z,17.53
2018-11-03T12:42:45.027Z,16.63
2018-11-03T12:45:14.274Z,18.13
2018-11-03T12:47:43.366Z,17.10
2018-11-03T12:50:14.140Z,17.10
2018-11-03T12:52:43.371Z,15.77
2018-11-03T12:55:12.472Z,14.30
2018-11-03T12:57:42.484Z,13.30
2018-11-03T13:00:13.775Z,15.83
2018-11-03T13:02:44.914Z,13.80
2018-11-03T13:05:14.268Z,13.77
2018-11-03T13:07:44.525Z,12.57
2018-11-03T13:10:13.492Z,13.17
2018-11-03T13:12:43.161Z,12.50
2018-11-03T13:15:13.319Z,12.70
2018-11-03T13:17:42.320Z,13.07
2018-11-03T13:20:13.205Z,12.87
2018-11-03T13:22:43.039Z,13.77
2018-11-03T13:25:12.559Z,13.40
2018-11-03T13:27:41.992Z,12.30
2018-11-03T13:30:13.078Z,12.07
2018-11-03T13:32:42.455Z,12.77
2018-11-03T13:35:12.356Z,12.97
2018-11-03T13:37:41.557Z,12.97
2018-11-03T13:40:11.984Z,13.43
2018-11-03T13:42:41.203Z,13.83
2018-11-03T13:45:10.738Z,14.43
2018-11-03T13:47:40.511Z,12.83
2018-11-03T13:50:12.542Z,14.73
2018-11-03T13:52:43.257Z,13.70
2018-11-03T13:55:12.326Z,11.97
2018-11-03T13:57:42.450Z,13.10
2018-11-03T14:00:13.924Z,13.40
2018-11-03T14:02:45.296Z,13.97
2018-11-03T14:05:14.940Z,20.37
2018-11-03T14:07:44.010Z,17.03
2018-11-03T14:10:14.633Z,16.77
2018-11-03T14:12:44.612Z,8.97
2018-11-03T14:15:15.588Z,13.67
2018-11-03T14:17:52.788Z,13.10
2018-11-03T14:20:22.408Z,13.87
2018-11-03T14:22:52.874Z,12.73
2018-11-03T14:25:23.268Z,13.53
2018-11-03T14:27:57.742Z,11.80
2018-11-03T14:30:26.872Z,11.73
2018-11-03T14:32:56.106Z,11.20
2018-11-03T14:35:25.509Z,11.40
2018-11-03T14:37:54.550Z,12.10
2018-11-03T14:40:24.045Z,12.13
2018-11-03T14:42:53.430Z,11.63
2018-11-03T14:45:22.881Z,11.27
2018-11-03T14:47:52.112Z,9.33
2018-11-03T14:50:21.287Z,10.23
2018-11-03T14:52:50.223Z,10.40
2018-11-03T14:55:25.916Z,11.27
2018-11-03T14:57:54.911Z,10.17
2018-11-03T15:00:23.875Z,10.20
2018-11-03T15:02:53.032Z,10.13
2018-11-03T15:05:28.956Z,9.83
2018-11-03T15:07:59.712Z,9.60
2018-11-03T15:10:28.605Z,10.07
2018-11-03T15:12:57.496Z,8.70
2018-11-03T15:15:26.970Z,10.50
2018-11-03T15:17:56.205Z,8.60
2018-11-03T15:20:25.218Z,9.67
2018-11-03T15:22:54.177Z,8.93
2018-11-03T15:25:23.557Z,10.20
2018-11-03T15:27:53.050Z,9.63
2018-11-03T15:30:22.087Z,9.80
2018-11-03T15:32:51.301Z,9.13
2018-11-03T15:35:29.684Z,11.17
2018-11-03T15:37:58.853Z,7.40
2018-11-03T15:40:27.888Z,13.10
2018-11-03T15:42:57.082Z,15.03
2018-11-03T15:45:26.032Z,14.70
2018-11-03T15:47:55.511Z,13.07
2018-11-03T15:50:26.423Z,10.33
2018-11-03T15:53:02.246Z,9.23
2018-11-03T15:55:31.090Z,11.17
2018-11-03T15:58:00.066Z,11.73
2018-11-03T16:00:29.316Z,15.03
2018-11-03T16:02:58.796Z,25.83
2018-11-03T16:05:30.085Z,25.40
2018-11-03T16:08:02.389Z,19.87
2018-11-03T16:10:41.885Z,17.70
2018-11-03T16:13:12.916Z,22.33
2018-11-03T16:15:41.915Z,16.07
2018-11-03T16:18:10.877Z,17.13
2018-11-03T16:20:40.466Z,14.17
2018-11-03T16:23:09.464Z,12.07
2018-11-03T16:25:38.487Z,12.47
2018-11-03T16:28:08.204Z,11.40
2018-11-03T16:30:37.173Z,11.13
2018-11-03T16:33:06.119Z,13.00
2018-11-03T16:35:35.287Z,11.83
2018-11-03T16:38:07.160Z,10.17
2018-11-03T16:40:36.451Z,10.80
2018-11-03T16:43:06.083Z,11.90
2018-11-03T16:45:35.147Z,11.70
2018-11-03T16:48:04.564Z,11.33
2018-11-03T16:50:48.183Z,14.00
2018-11-03T16:53:23.116Z,13.03
2018-11-03T16:55:52.945Z,13.93
2018-11-03T16:58:22.243Z,13.73
2018-11-03T17:00:51.355Z,12.83
2018-11-03T17:03:20.512Z,13.47
2018-11-03T17:05:49.958Z,13.77
2018-11-03T17:08:22.573Z,12.37
2018-11-03T17:10:56.827Z,11.17
2018-11-03T17:13:26.631Z,13.53
2018-11-03T17:15:55.673Z,14.77
2018-11-03T17:18:24.779Z,12.73
2018-11-03T17:20:53.928Z,13.03
2018-11-03T17:23:23.065Z,14.23
2018-11-03T17:25:52.215Z,12.77
2018-11-03T17:28:22.347Z,13.93
2018-11-03T17:30:51.664Z,16.30
2018-11-03T17:33:21.384Z,15.03
2018-11-03T17:35:50.511Z,14.47
2018-11-03T17:38:19.925Z,14.37
2018-11-03T17:40:49.053Z,15.97
2018-11-03T17:43:18.735Z,14.83
2018-11-03T17:45:47.954Z,22.90
2018-11-03T17:48:17.165Z,14.23
2018-11-03T17:50:58.952Z,15.87
2018-11-03T17:53:28.144Z,13.47
2018-11-03T17:55:57.088Z,12.20
2018-11-03T17:58:26.148Z,17.10
2018-11-03T18:00:55.236Z,14.93
2018-11-03T18:03:24.450Z,14.10
2018-11-03T18:05:53.564Z,14.63
2018-11-03T18:08:38.856Z,15.23
2018-11-03T18:11:07.823Z,14.33
2018-11-03T18:13:37.261Z,13.23
2018-11-03T18:16:07.296Z,14.60
2018-11-03T18:18:36.457Z,13.50
2018-11-03T18:21:05.450Z,13.23
2018-11-03T18:23:42.593Z,13.10
2018-11-03T18:26:12.333Z,13.43
2018-11-03T18:28:41.427Z,14.07
2018-11-03T18:31:12.958Z,13.43
2018-11-03T18:33:42.087Z,14.07
2018-11-03T18:36:11.351Z,14.37
2018-11-03T18:38:40.350Z,14.63
2018-11-03T18:41:09.608Z,13.83
2018-11-03T18:43:38.741Z,13.90
2018-11-03T18:46:07.682Z,13.90
2018-11-03T18:48:36.730Z,15.17
2018-11-03T18:51:05.841Z,15.30
2018-11-03T18:53:36.019Z,14.80
2018-11-03T18:56:05.359Z,14.90
2018-11-03T18:58:56.397Z,15.27
2018-11-03T19:01:36.523Z,15.20
2018-11-03T19:04:05.544Z,21.53
2018-11-03T19:06:34.941Z,16.90
2018-11-03T19:09:04.534Z,16.67
2018-11-03T19:11:33.534Z,16.27
2018-11-03T19:14:02.490Z,16.00
2018-11-03T19:16:31.513Z,17.23
2018-11-03T19:19:00.543Z,16.93
2018-11-03T19:21:29.594Z,18.27
2018-11-03T19:24:19.808Z,18.27
2018-11-03T19:27:01.584Z,16.90
2018-11-03T19:29:30.892Z,16.30
2018-11-03T19:31:59.987Z,17.83
2018-11-03T19:34:29.755Z,18.77
2018-11-03T19:36:58.634Z,22.07
2018-11-03T19:39:27.900Z,20.00
2018-11-03T19:41:57.084Z,21.10
2018-11-03T19:44:26.157Z,18.70
2018-11-03T19:46:55.160Z,18.83
2018-11-03T19:49:24.185Z,20.37
2018-11-03T19:51:53.684Z,20.00
2018-11-03T19:54:24.708Z,20.27
2018-11-03T19:56:53.643Z,23.23
2018-11-03T19:59:22.786Z,20.43
2018-11-03T20:01:52.495Z,19.10
2018-11-03T20:04:22.000Z,20.47
2018-11-03T20:06:50.875Z,21.13
2018-11-03T20:09:20.496Z,20.07
2018-11-03T20:11:51.947Z,22.80
2018-11-03T20:14:21.169Z,21.57
2018-11-03T20:16:50.336Z,21.63
2018-11-03T20:19:21.424Z,21.97
2018-11-03T20:21:53.492Z,20.77
2018-11-03T20:24:24.425Z,22.53
2018-11-03T20:26:56.512Z,22.40
2018-11-03T20:29:26.531Z,23.10
2018-11-03T20:31:56.950Z,23.77
2018-11-03T20:34:27.155Z,23.40
2018-11-03T20:36:56.671Z,23.03
2018-11-03T20:39:26.116Z,23.23
2018-11-03T20:43:34.749Z,23.90
2018-11-03T20:46:03.875Z,23.03
2018-11-03T20:48:33.118Z,23.27
2018-11-03T20:51:07.570Z,23.57
2018-11-03T20:53:37.400Z,23.87
2018-11-03T20:56:07.057Z,23.73
2018-11-03T20:58:36.252Z,23.77
2018-11-03T21:01:05.788Z,24.73
2018-11-03T21:03:35.164Z,22.60
2018-11-03T21:06:04.343Z,23.73
2018-11-03T21:08:33.765Z,23.20
2018-11-03T21:11:02.619Z,22.60
2018-11-03T21:13:31.630Z,23.47
2018-11-03T21:16:00.840Z,23.63
2018-11-03T21:18:31.396Z,23.80
2018-11-03T21:21:01.763Z,23.10
2018-11-03T21:23:30.880Z,22.97
2018-11-03T21:26:00.513Z,24.03
2018-11-03T21:28:29.508Z,23.70
2018-11-03T21:30:58.524Z,24.93
2018-11-03T21:33:28.239Z,24.37
2018-11-03T21:35:57.827Z,24.60
2018-11-03T21:38:26.773Z,24.60
2018-11-03T21:40:55.893Z,23.90
2018-11-03T21:43:25.469Z,24.30
2018-11-03T21:45:54.377Z,24.00
2018-11-03T21:48:23.400Z,24.63
2018-11-03T21:50:52.294Z,26.73
2018-11-03T21:56:50.733Z,25.73
2018-11-03T22:04:18.973Z,24.00
2018-11-03T22:06:48.130Z,25.00
2018-11-03T22:09:17.172Z,24.80
2018-11-03T22:11:48.390Z,26.30
2018-11-03T22:14:19.491Z,26.90
2018-11-03T22:16:48.812Z,27.97
2018-11-03T22:19:17.896Z,26.50
2018-11-03T22:21:47.052Z,28.53
2018-11-03T22:24:15.821Z,26.67
2018-11-03T22:26:44.817Z,26.47
2018-11-03T22:29:14.003Z,27.20
2018-11-03T22:31:43.029Z,27.60
2018-11-03T22:34:12.840Z,27.07
2018-11-03T22:36:41.788Z,27.37
2018-11-03T22:39:11.367Z,26.43
2018-11-03T22:41:40.813Z,27.20
2018-11-03T22:44:10.113Z,27.33
2018-11-03T22:46:42.026Z,26.10
2018-11-03T22:49:11.827Z,27.20
2018-11-03T22:51:40.820Z,25.47
2018-11-03T22:54:09.671Z,27.67
2018-11-03T22:56:38.918Z,27.37
2018-11-03T22:59:07.842Z,27.67
2018-11-03T23:01:36.711Z,27.03
2018-11-03T23:04:06.337Z,27.80
2018-11-03T23:06:36.453Z,28.57
2018-11-03T23:09:06.925Z,28.17
2018-11-03T23:11:58.050Z,27.67
2018-11-03T23:21:21.996Z,28.07
2018-11-03T23:23:50.856Z,28.67
2018-11-03T23:26:19.884Z,27.53
2018-11-03T23:28:48.900Z,28.50
2018-11-03T23:31:18.288Z,29.07
2018-11-03T23:40:51.293Z,28.97
2018-11-03T23:43:21.698Z,29.10
2018-11-03T23:45:53.399Z,29.60
2018-11-03T23:48:22.520Z,28.13
2018-11-03T23:50:53.276Z,29.90
2018-11-03T23:53:22.333Z,29.97
2018-11-03T23:58:47.863Z,29.90
